createdAt,value
2018-05-11T00:01:45.780Z,11.73
2018-05-11T00:04:13.226Z,11.43
2018-05-11T00:06:40.689Z,10.00
2018-05-11T00:09:08.148Z,10.23
2018-05-11T00:11:35.605Z,9.80
2018-05-11T00:14:03.052Z,11.23
2018-05-11T00:16:30.522Z,9.73
2018-05-11T00:18:58.070Z,11.33
2018-05-11T00:21:25.540Z,10.40
2018-05-11T00:23:52.993Z,10.07
2018-05-11T00:26:20.446Z,11.13
2018-05-11T00:28:47.938Z,9.80
2018-05-11T00:31:16.152Z,9.13
2018-05-11T00:33:43.610Z,9.93
2018-05-11T00:36:11.064Z,9.90
2018-05-11T00:38:38.524Z,9.90
2018-05-11T00:41:05.980Z,10.33
2018-05-11T00:43:33.444Z,9.30
2018-05-11T00:46:00.909Z,9.93
2018-05-11T00:48:28.394Z,9.87
2018-05-11T00:50:56.622Z,9.10
2018-05-11T00:53:24.084Z,10.60
2018-05-11T00:55:51.536Z,9.80
2018-05-11T00:58:19.004Z,10.67
2018-05-11T01:00:46.453Z,9.47
2018-05-11T01:03:13.907Z,8.87
2018-05-11T01:05:41.502Z,10.13
2018-05-11T01:08:09.768Z,10.17
2018-05-11T01:10:37.215Z,12.00
2018-05-11T01:13:04.688Z,10.90
2018-05-11T01:15:32.919Z,9.57
2018-05-11T01:18:00.393Z,9.43
2018-05-11T01:20:27.848Z,10.50
2018-05-11T01:22:55.300Z,9.33
2018-05-11T01:25:22.767Z,8.50
2018-05-11T01:27:50.236Z,10.63
2018-05-11T01:30:17.697Z,9.30
2018-05-11T01:32:45.154Z,10.17
2018-05-11T01:35:12.616Z,11.47
2018-05-11T01:37:40.076Z,10.20
2018-05-11T01:40:07.520Z,10.50
2018-05-11T01:42:34.972Z,9.33
2018-05-11T01:45:02.531Z,9.40
2018-05-11T01:47:31.484Z,9.73
2018-05-11T01:49:58.946Z,10.10
2018-05-11T01:52:26.440Z,8.90
2018-05-11T01:54:53.996Z,9.20
2018-05-11T01:57:21.557Z,9.37
2018-05-11T01:59:49.019Z,10.87
2018-05-11T02:02:16.477Z,11.30
2018-05-11T02:04:43.936Z,8.97
2018-05-11T02:07:11.389Z,9.40
2018-05-11T02:09:38.847Z,9.33
2018-05-11T02:12:07.075Z,9.77
2018-05-11T02:14:34.568Z,9.87
2018-05-11T02:17:02.128Z,10.60
2018-05-11T02:19:30.348Z,9.60
2018-05-11T02:21:57.861Z,9.50
2018-05-11T02:24:26.133Z,8.77
2018-05-11T02:26:53.703Z,8.67
2018-05-11T02:29:21.155Z,7.90
2018-05-11T02:31:48.596Z,9.17
2018-05-11T02:34:16.884Z,8.90
2018-05-11T02:36:44.329Z,7.63
2018-05-11T02:39:11.788Z,8.87
2018-05-11T02:41:39.253Z,8.60
2018-05-11T02:44:06.702Z,7.93
2018-05-11T02:46:34.268Z,7.90
2018-05-11T02:49:01.833Z,8.27
2018-05-11T02:51:29.283Z,9.67
2018-05-11T02:53:57.510Z,8.13
2018-05-11T02:56:24.960Z,7.10
2018-05-11T02:58:52.468Z,7.33
2018-05-11T03:01:19.927Z,8.50
2018-05-11T03:03:47.378Z,7.80
2018-05-11T03:06:14.841Z,8.63
2018-05-11T03:08:43.057Z,8.30
2018-05-11T03:11:10.572Z,8.40
2018-05-11T03:13:38.028Z,9.07
2018-05-11T03:16:05.489Z,8.70
2018-05-11T03:18:33.062Z,7.50
2018-05-11T03:21:00.404Z,8.47
2018-05-11T03:23:27.883Z,8.30
2018-05-11T03:25:56.131Z,7.60
2018-05-11T03:28:23.592Z,7.90
2018-05-11T03:30:52.545Z,7.63
2018-05-11T03:33:20.045Z,7.67
2018-05-11T03:35:47.508Z,8.30
2018-05-11T03:38:14.969Z,8.50
2018-05-11T03:40:42.510Z,8.07
2018-05-11T03:43:11.470Z,7.33
2018-05-11T03:45:38.925Z,8.17
2018-05-11T03:48:06.384Z,8.43
2018-05-11T03:50:33.842Z,8.70
2018-05-11T03:53:02.129Z,8.30
2018-05-11T03:55:29.651Z,9.63
2018-05-11T03:57:57.068Z,9.90
2018-05-11T04:00:25.529Z,9.07
2018-05-11T04:03:05.024Z,8.77
2018-05-11T04:05:44.328Z,8.80
2018-05-11T04:08:23.765Z,9.17
2018-05-11T04:10:52.020Z,8.77
2018-05-11T04:13:19.489Z,8.97
2018-05-11T04:15:46.952Z,9.30
2018-05-11T04:18:14.401Z,9.13
2018-05-11T04:20:41.915Z,7.90
2018-05-11T04:23:09.416Z,8.03
2018-05-11T04:25:36.977Z,7.87
2018-05-11T04:28:04.429Z,7.20
2018-05-11T04:30:31.888Z,5.27
2018-05-11T04:32:59.346Z,6.00
2018-05-11T04:35:26.800Z,5.20
2018-05-11T04:37:54.268Z,5.87
2018-05-11T04:40:21.716Z,4.83
2018-05-11T04:42:49.177Z,4.57
2018-05-11T04:45:16.725Z,5.23
2018-05-11T04:47:44.079Z,4.27
2018-05-11T04:50:11.540Z,5.80
2018-05-11T04:52:38.988Z,5.13
2018-05-11T04:55:06.436Z,5.90
2018-05-11T04:57:33.910Z,6.03
2018-05-11T05:00:01.372Z,8.87
2018-05-11T05:02:28.825Z,8.47
2018-05-11T05:04:56.282Z,8.30
2018-05-11T05:07:25.249Z,7.10
2018-05-11T05:09:52.729Z,5.80
2018-05-11T05:12:20.234Z,6.30
2018-05-11T05:14:47.646Z,6.00
2018-05-11T05:17:15.109Z,8.20
2018-05-11T05:19:42.616Z,9.13
2018-05-11T05:22:10.052Z,11.70
2018-05-11T05:24:37.514Z,9.70
2018-05-11T05:27:04.965Z,10.97
2018-05-11T05:29:32.429Z,10.93
2018-05-11T05:31:59.902Z,12.87
2018-05-11T05:34:27.369Z,13.73
2018-05-11T05:36:54.835Z,11.93
2018-05-11T05:39:22.313Z,10.47
2018-05-11T05:41:49.777Z,11.43
2018-05-11T05:44:18.495Z,11.67
2018-05-11T05:46:46.712Z,10.97
2018-05-11T05:49:14.174Z,11.77
2018-05-11T05:51:41.628Z,10.30
2018-05-11T05:54:09.108Z,9.30
2018-05-11T05:56:36.556Z,8.80
2018-05-11T05:59:04.028Z,7.60
2018-05-11T06:01:31.479Z,6.03
2018-05-11T06:03:59.037Z,5.70
2018-05-11T06:06:26.500Z,5.47
2018-05-11T06:08:53.957Z,5.63
2018-05-11T06:11:22.215Z,5.70
2018-05-11T06:13:49.684Z,5.90
2018-05-11T06:16:17.135Z,5.47
2018-05-11T06:18:44.589Z,5.93
2018-05-11T06:21:12.144Z,6.10
2018-05-11T06:23:39.613Z,6.20
2018-05-11T06:26:07.829Z,5.37
2018-05-11T06:28:35.280Z,5.70
2018-05-11T06:31:02.754Z,5.73
2018-05-11T06:33:30.239Z,6.23
2018-05-11T06:35:57.719Z,5.90
2018-05-11T06:38:25.984Z,8.70
2018-05-11T06:40:53.541Z,7.07
2018-05-11T06:43:21.103Z,6.57
2018-05-11T06:45:48.656Z,6.87
2018-05-11T06:48:16.128Z,6.03
2018-05-11T06:50:43.576Z,7.17
2018-05-11T06:53:12.570Z,7.03
2018-05-11T06:55:40.027Z,7.63
2018-05-11T06:58:07.505Z,7.20
2018-05-11T07:00:35.736Z,7.60
2018-05-11T07:03:03.185Z,6.80
2018-05-11T07:05:30.652Z,7.20
2018-05-11T07:07:58.191Z,6.03
2018-05-11T07:10:26.393Z,6.80
2018-05-11T07:12:53.950Z,5.87
2018-05-11T07:15:21.412Z,6.70
2018-05-11T07:17:50.373Z,6.10
2018-05-11T07:20:17.835Z,6.03
2018-05-11T07:22:45.323Z,6.00
2018-05-11T07:25:12.796Z,6.30
2018-05-11T07:27:41.072Z,7.10
2018-05-11T07:30:08.611Z,8.10
2018-05-11T07:32:36.063Z,6.30
2018-05-11T07:35:03.563Z,7.63
2018-05-11T07:37:31.078Z,6.63
2018-05-11T07:39:58.552Z,7.33
2018-05-11T07:42:26.784Z,7.20
2018-05-11T07:44:54.242Z,5.87
2018-05-11T07:47:21.717Z,7.10
2018-05-11T07:49:49.292Z,6.27
2018-05-11T07:52:16.746Z,5.80
2018-05-11T07:54:44.300Z,5.90
2018-05-11T07:57:11.818Z,4.80
2018-05-11T07:59:39.279Z,6.17
2018-05-11T08:02:06.753Z,6.10
2018-05-11T08:04:34.216Z,5.80
2018-05-11T08:07:01.689Z,4.57
2018-05-11T08:09:29.144Z,5.23
2018-05-11T08:11:56.608Z,4.57
2018-05-11T08:14:24.216Z,4.17
2018-05-11T08:16:52.298Z,4.93
2018-05-11T08:19:19.871Z,4.10
2018-05-11T08:21:47.331Z,5.23
2018-05-11T08:24:14.796Z,5.07
2018-05-11T08:26:42.276Z,4.80
2018-05-11T08:29:09.721Z,4.40
2018-05-11T08:31:37.174Z,4.30
2018-05-11T08:34:05.413Z,3.30
2018-05-11T08:36:32.872Z,4.67
2018-05-11T08:39:00.372Z,4.80
2018-05-11T08:41:27.834Z,5.00
2018-05-11T08:43:55.281Z,4.40
2018-05-11T08:46:22.742Z,5.50
2018-05-11T08:48:50.204Z,4.37
2018-05-11T08:51:17.660Z,5.20
2018-05-11T08:53:45.204Z,4.27
2018-05-11T08:56:13.472Z,3.97
2018-05-11T08:58:40.941Z,4.87
2018-05-11T09:01:08.400Z,4.63
2018-05-11T09:03:35.852Z,4.27
2018-05-11T09:06:04.847Z,3.93
2018-05-11T09:08:32.331Z,5.23
2018-05-11T09:10:59.784Z,6.10
2018-05-11T09:13:28.033Z,5.03
2018-05-11T09:15:55.553Z,5.83
2018-05-11T09:18:23.027Z,4.43
2018-05-11T09:20:50.475Z,4.17
2018-05-11T09:23:17.957Z,4.50
2018-05-11T09:25:45.409Z,4.97
2018-05-11T09:28:12.863Z,4.53
2018-05-11T09:30:40.328Z,5.23
2018-05-11T09:33:07.821Z,4.97
2018-05-11T09:35:36.064Z,4.67
2018-05-11T09:38:03.533Z,3.80
2018-05-11T09:40:31.793Z,4.73
2018-05-11T09:42:59.355Z,4.00
2018-05-11T09:45:26.920Z,3.90
2018-05-11T09:47:54.379Z,4.50
2018-05-11T09:50:21.842Z,5.60
2018-05-11T09:52:49.302Z,3.63
2018-05-11T09:55:17.522Z,4.50
2018-05-11T09:57:45.057Z,4.20
2018-05-11T10:00:12.512Z,3.93
2018-05-11T10:02:39.992Z,3.80
2018-05-11T10:05:07.472Z,4.70
2018-05-11T10:07:34.928Z,4.67
2018-05-11T10:10:02.402Z,4.03
2018-05-11T10:12:29.963Z,4.30
2018-05-11T10:14:57.435Z,4.30
2018-05-11T10:17:25.669Z,4.57
2018-05-11T10:19:53.120Z,5.37
2018-05-11T10:22:20.588Z,4.20
2018-05-11T10:24:48.219Z,4.20
2018-05-11T10:27:15.675Z,4.50
2018-05-11T10:29:43.121Z,4.80
2018-05-11T10:32:10.633Z,4.47
2018-05-11T10:34:38.108Z,4.90
2018-05-11T10:37:06.328Z,5.00
2018-05-11T10:39:33.785Z,5.03
2018-05-11T10:42:01.272Z,5.20
2018-05-11T10:44:28.720Z,5.00
2018-05-11T10:46:56.173Z,4.67
2018-05-11T10:49:24.476Z,5.20
2018-05-11T10:51:51.934Z,4.40
2018-05-11T10:54:19.386Z,4.90
2018-05-11T10:56:46.852Z,5.07
2018-05-11T10:59:14.304Z,4.57
2018-05-11T11:01:41.917Z,4.47
2018-05-11T11:04:10.135Z,4.70
2018-05-11T11:06:37.605Z,4.03
2018-05-11T11:09:05.867Z,4.47
2018-05-11T11:11:33.329Z,4.60
2018-05-11T11:14:00.872Z,5.67
2018-05-11T11:16:28.333Z,4.23
2018-05-11T11:18:55.798Z,5.03
2018-05-11T11:21:23.359Z,5.23
2018-05-11T11:23:50.802Z,5.07
2018-05-11T11:26:18.271Z,4.93
2018-05-11T11:28:46.500Z,5.30
2018-05-11T11:31:13.985Z,4.90
2018-05-11T11:33:41.436Z,4.77
2018-05-11T11:36:08.904Z,5.37
2018-05-11T11:38:36.354Z,4.83
2018-05-11T11:41:03.859Z,5.30
2018-05-11T11:43:31.385Z,5.53
2018-05-11T11:45:58.840Z,6.00
2018-05-11T11:48:27.086Z,5.57
2018-05-11T11:50:54.574Z,6.00
2018-05-11T11:53:22.128Z,5.67
2018-05-11T11:55:49.600Z,5.50
2018-05-11T11:58:17.828Z,5.80
2018-05-11T12:00:45.316Z,5.60
2018-05-11T12:03:13.552Z,5.90
2018-05-11T12:05:41.020Z,5.60
2018-05-11T12:08:08.468Z,6.70
2018-05-11T12:10:35.928Z,6.13
2018-05-11T12:13:03.388Z,6.87
2018-05-11T12:15:30.848Z,6.00
2018-05-11T12:17:58.309Z,6.20
2018-05-11T12:20:25.790Z,5.60
2018-05-11T12:22:53.245Z,5.67
2018-05-11T12:25:20.713Z,7.00
2018-05-11T12:27:48.175Z,7.53
2018-05-11T12:30:16.401Z,7.17
2018-05-11T12:32:43.857Z,7.17
2018-05-11T12:35:11.344Z,7.53
2018-05-11T12:37:39.595Z,7.40
2018-05-11T12:40:07.056Z,6.77
2018-05-11T12:42:34.535Z,7.40
2018-05-11T12:45:02.009Z,6.70
2018-05-11T12:47:29.460Z,7.60
2018-05-11T12:49:57.724Z,7.73
2018-05-11T12:52:25.944Z,7.00
2018-05-11T12:54:53.396Z,7.40
2018-05-11T12:57:20.856Z,6.73
2018-05-11T12:59:48.373Z,6.43
2018-05-11T13:02:15.935Z,7.87
2018-05-11T13:04:44.162Z,7.50
2018-05-11T13:07:11.812Z,7.57
2018-05-11T13:09:39.189Z,7.73
2018-05-11T13:12:06.648Z,8.00
2018-05-11T13:14:34.117Z,7.97
2018-05-11T13:17:01.573Z,7.17
2018-05-11T13:19:29.032Z,8.43
2018-05-11T13:21:56.489Z,6.73
2018-05-11T13:24:24.060Z,8.10
2018-05-11T13:26:51.525Z,8.20
2018-05-11T13:29:19.760Z,8.07
2018-05-11T13:31:47.258Z,7.80
2018-05-11T13:34:16.437Z,7.80
2018-05-11T13:36:43.907Z,8.20
2018-05-11T13:39:11.361Z,6.60
2018-05-11T13:41:38.921Z,7.40
2018-05-11T13:44:07.921Z,7.90
2018-05-11T13:46:35.385Z,8.00
2018-05-11T13:49:02.933Z,8.87
2018-05-11T13:51:31.209Z,8.20
2018-05-11T13:54:00.198Z,8.00
2018-05-11T13:56:28.684Z,8.23
2018-05-11T13:58:56.145Z,7.20
2018-05-11T14:01:23.612Z,7.73
2018-05-11T14:03:51.829Z,7.13
2018-05-11T14:06:19.282Z,7.40
2018-05-11T14:08:46.743Z,9.27
2018-05-11T14:11:14.208Z,8.43
2018-05-11T14:13:41.680Z,8.60
2018-05-11T14:16:09.150Z,7.37
2018-05-11T14:18:38.120Z,7.93
2018-05-11T14:21:05.589Z,9.37
2018-05-11T14:23:33.060Z,8.50
2018-05-11T14:26:00.615Z,8.20
2018-05-11T14:28:28.079Z,7.37
2018-05-11T14:30:56.345Z,8.07
2018-05-11T14:33:23.796Z,8.83
2018-05-11T14:35:51.273Z,8.53
2018-05-11T14:38:18.735Z,8.70
2018-05-11T14:40:46.996Z,9.67
2018-05-11T14:43:15.264Z,9.43
2018-05-11T14:45:42.825Z,8.80
2018-05-11T14:48:10.285Z,8.90
2018-05-11T14:50:37.753Z,9.87
2018-05-11T14:53:06.012Z,9.27
2018-05-11T14:55:33.576Z,8.70
2018-05-11T14:58:01.844Z,9.03
2018-05-11T15:00:30.077Z,9.37
2018-05-11T15:02:57.540Z,9.03
2018-05-11T15:05:25.041Z,8.80
2018-05-11T15:07:54.029Z,9.00
2018-05-11T15:10:21.489Z,9.30
2018-05-11T15:12:48.953Z,8.77
2018-05-11T15:15:17.172Z,10.07
2018-05-11T15:17:44.636Z,11.00
2018-05-11T15:20:12.093Z,10.73
2018-05-11T15:22:39.576Z,9.20
2018-05-11T15:25:07.054Z,10.70
2018-05-11T15:27:34.512Z,10.40
2018-05-11T15:30:03.472Z,10.47
2018-05-11T15:32:30.933Z,12.53
2018-05-11T15:34:58.404Z,11.10
2018-05-11T15:37:25.877Z,10.77
2018-05-11T15:39:54.144Z,9.70
2018-05-11T15:42:22.368Z,10.33
2018-05-11T15:44:49.881Z,11.20
2018-05-11T15:47:18.153Z,10.93
2018-05-11T15:49:46.385Z,10.90
2018-05-11T15:52:14.685Z,10.70
2018-05-11T15:54:42.145Z,11.17
2018-05-11T15:57:09.600Z,12.07
2018-05-11T15:59:37.081Z,13.70
2018-05-11T16:02:05.321Z,13.20
2018-05-11T16:04:32.788Z,13.00
2018-05-11T16:07:00.236Z,11.80
2018-05-11T16:09:27.717Z,12.97
2018-05-11T16:11:55.188Z,14.20
2018-05-11T16:14:23.419Z,13.90
2018-05-11T16:16:51.009Z,15.47
2018-05-11T16:19:18.491Z,15.07
2018-05-11T16:21:46.740Z,16.00
2018-05-11T16:24:14.985Z,14.33
2018-05-11T16:26:42.452Z,14.90
2018-05-11T16:29:09.933Z,15.40
2018-05-11T16:31:37.404Z,16.40
2018-05-11T16:34:05.630Z,14.97
2018-05-11T16:36:33.107Z,15.97
2018-05-11T16:39:00.559Z,19.97
2018-05-11T16:41:28.089Z,20.97
2018-05-11T16:43:55.593Z,23.63
2018-05-11T16:46:23.052Z,22.10
2018-05-11T16:48:50.611Z,26.07
2018-05-11T16:51:18.064Z,25.30
2018-05-11T16:53:45.541Z,23.93
2018-05-11T16:56:13.796Z,26.10
2018-05-11T16:58:41.260Z,25.70
2018-05-11T17:01:08.718Z,30.13
2018-05-11T17:03:36.172Z,31.40
2018-05-11T17:06:04.433Z,29.70
2018-05-11T17:08:31.915Z,31.10
2018-05-11T17:11:00.137Z,36.57
2018-05-11T17:13:27.628Z,37.87
2018-05-11T17:15:55.184Z,35.10
2018-05-11T17:18:22.644Z,39.47
2018-05-11T17:20:50.124Z,38.10
2018-05-11T17:23:18.342Z,38.13
2018-05-11T17:25:45.795Z,36.03
2018-05-11T17:28:13.280Z,36.27
2018-05-11T17:30:40.745Z,36.97
2018-05-11T17:33:08.304Z,36.20
2018-05-11T17:35:35.763Z,35.10
2018-05-11T17:38:03.313Z,34.83
2018-05-11T17:40:30.780Z,35.87
2018-05-11T17:42:58.232Z,35.63
2018-05-11T17:45:25.696Z,35.07
2018-05-11T17:47:53.169Z,35.17
2018-05-11T17:50:21.416Z,32.60
2018-05-11T17:52:48.895Z,34.70
2018-05-11T17:55:17.134Z,36.40
2018-05-11T17:57:44.712Z,35.53
2018-05-11T18:00:12.168Z,35.60
2018-05-11T18:02:39.647Z,36.17
2018-05-11T18:05:07.908Z,37.93
2018-05-11T18:07:35.468Z,37.37
2018-05-11T18:10:03.003Z,36.50
2018-05-11T18:12:31.170Z,36.37
2018-05-11T18:14:58.629Z,35.90
2018-05-11T18:17:26.106Z,35.53
2018-05-11T18:19:53.560Z,40.03
2018-05-11T18:22:21.040Z,37.77
2018-05-11T18:24:49.276Z,37.50
2018-05-11T18:27:16.740Z,40.43
2018-05-11T18:29:44.214Z,39.33
2018-05-11T18:32:11.668Z,38.50
2018-05-11T18:34:39.149Z,37.27
2018-05-11T18:37:07.385Z,40.77
2018-05-11T18:39:34.859Z,37.00
2018-05-11T18:42:02.314Z,40.23
2018-05-11T18:44:29.782Z,38.57
2018-05-11T18:46:57.255Z,39.73
2018-05-11T18:49:25.484Z,40.50
2018-05-11T18:51:52.957Z,41.97
2018-05-11T18:54:20.887Z,39.67
2018-05-11T18:56:47.972Z,39.70
2018-05-11T18:59:15.532Z,39.83
2018-05-11T19:01:43.006Z,39.70
2018-05-11T19:04:10.464Z,43.00
2018-05-11T19:06:38.687Z,42.77
2018-05-11T19:09:06.242Z,39.40
2018-05-11T19:11:33.617Z,41.23
2018-05-11T19:14:01.076Z,40.20
2018-05-11T19:16:28.558Z,41.73
2018-05-11T19:18:56.125Z,41.07
2018-05-11T19:21:24.391Z,44.63
2018-05-11T19:23:51.941Z,42.03
2018-05-11T19:26:19.409Z,42.23
2018-05-11T19:28:46.881Z,39.70
2018-05-11T19:31:15.117Z,43.27
2018-05-11T19:33:42.689Z,46.10
2018-05-11T19:36:10.157Z,42.60
2018-05-11T19:38:37.625Z,42.07
2018-05-11T19:41:05.861Z,42.10
2018-05-11T19:43:33.340Z,41.90
2018-05-11T19:46:00.813Z,44.67
2018-05-11T19:48:29.064Z,44.27
2018-05-11T19:50:56.637Z,42.33
2018-05-11T19:53:24.184Z,42.60
2018-05-11T19:55:51.649Z,41.67
2018-05-11T19:58:19.113Z,43.47
2018-05-11T20:00:46.570Z,41.37
2018-05-11T20:03:14.828Z,43.10
2018-05-11T20:05:42.297Z,43.53
2018-05-11T20:08:09.777Z,41.87
2018-05-11T20:10:38.009Z,38.83
2018-05-11T20:13:05.460Z,42.77
2018-05-11T20:15:32.944Z,42.23
2018-05-11T20:18:00.504Z,46.40
2018-05-11T20:20:27.948Z,45.13
2018-05-11T20:22:55.505Z,43.20
2018-05-11T20:25:23.064Z,41.83
2018-05-11T20:27:50.539Z,43.03
2018-05-11T20:30:17.991Z,41.43
2018-05-11T20:32:45.514Z,39.47
2018-05-11T20:35:12.965Z,41.87
2018-05-11T20:37:40.419Z,38.57
2018-05-11T20:40:07.929Z,37.23
2018-05-11T20:42:36.288Z,41.90
2018-05-11T20:45:03.760Z,43.27
2018-05-11T20:47:31.224Z,38.43
2018-05-11T20:49:59.472Z,39.37
2018-05-11T20:52:27.718Z,40.37
2018-05-11T20:54:55.185Z,39.60
2018-05-11T20:57:22.648Z,39.80
2018-05-11T20:59:50.122Z,40.30
2018-05-11T21:05:49.041Z,39.80
2018-05-11T21:08:16.508Z,37.10
2018-05-11T21:10:44.732Z,36.90
2018-05-11T21:13:12.205Z,39.97
2018-05-11T21:15:39.666Z,41.40
2018-05-11T21:18:07.155Z,39.07
2018-05-11T21:20:34.612Z,40.00
2018-05-11T21:23:02.845Z,39.03
2018-05-11T21:25:30.424Z,38.13
2018-05-11T21:27:57.984Z,38.20
2018-05-11T21:30:25.462Z,35.37
2018-05-11T21:32:52.925Z,33.10
2018-05-11T21:35:21.161Z,33.80
2018-05-11T21:37:48.791Z,33.07
2018-05-11T21:40:16.249Z,30.67
2018-05-11T21:42:43.761Z,28.77
2018-05-11T21:45:11.232Z,31.13
2018-05-11T21:47:39.468Z,29.27
2018-05-11T21:50:06.935Z,29.33
2018-05-11T21:52:34.503Z,28.67
2018-05-11T21:55:02.061Z,31.03
2018-05-11T21:57:29.521Z,28.90
2018-05-11T21:59:57.068Z,29.50
2018-05-11T22:02:24.525Z,28.70
2018-05-11T22:04:51.986Z,31.63
2018-05-11T22:07:19.552Z,29.43
2018-05-11T22:09:47.832Z,30.60
2018-05-11T22:12:16.060Z,29.87
2018-05-11T22:14:43.533Z,30.43
2018-05-11T22:17:10.982Z,28.97
2018-05-11T22:19:38.448Z,29.10
2018-05-11T22:22:06.027Z,28.57
2018-05-11T22:24:33.486Z,28.67
2018-05-11T22:27:00.941Z,28.97
2018-05-11T22:29:28.417Z,29.30
2018-05-11T22:31:56.648Z,28.90
2018-05-11T22:34:24.105Z,27.30
2018-05-11T22:36:51.563Z,30.63
2018-05-11T22:39:19.044Z,27.80
2018-05-11T22:41:46.592Z,27.07
2018-05-11T22:44:14.057Z,25.10
2018-05-11T22:46:41.525Z,26.10
2018-05-11T22:49:08.996Z,25.73
2018-05-11T22:51:37.235Z,26.97
2018-05-11T22:54:04.793Z,26.10
2018-05-11T22:56:32.261Z,23.40
2018-05-11T22:58:59.740Z,24.63
2018-05-11T23:01:27.965Z,24.97
2018-05-11T23:03:55.442Z,25.10
2018-05-11T23:06:22.893Z,25.63
2018-05-11T23:08:50.360Z,24.37
2018-05-11T23:11:17.915Z,23.90
2018-05-11T23:13:45.369Z,22.67
2018-05-11T23:16:12.839Z,23.43
2018-05-11T23:18:40.302Z,22.77
2018-05-11T23:21:07.787Z,22.07
2018-05-11T23:23:35.261Z,23.80
2018-05-11T23:26:02.764Z,22.93
2018-05-11T23:28:30.321Z,22.90
2018-05-11T23:30:57.793Z,22.10
2018-05-11T23:33:25.248Z,22.40
2018-05-11T23:35:53.492Z,21.37
2018-05-11T23:38:20.940Z,22.63
2018-05-11T23:40:48.412Z,24.97
2018-05-11T23:43:15.884Z,20.87
2018-05-11T23:45:43.336Z,21.83
2018-05-11T23:48:10.813Z,19.80
2018-05-11T23:50:39.033Z,22.37
2018-05-11T23:53:06.501Z,20.13
2018-05-11T23:55:33.968Z,20.80
2018-05-11T23:58:01.420Z,20.33
